Weather observations for the past three days for
Plant City, Plant City Municipal Airport
Imperial (Metric)
Date Time (edt) Wind (mph) Vis. (mi.) Weather Sky Cond. Temperature (ºF) Relative Humidity Wind Chill (°F) Heat Index (°F) Pressure Precipitation (in)
Air Dwpt 6 hour altimeter (in) sea level (mb) 1 hr 3 hr 6 hr
Max. Min.
08 10:15 N 3 10.00 Mostly Cloudy FEW018 SCT023 SCT031 BKN041 83.1 73.6 73% 89 30.02 0.0
08 09:55 NW 5 9.00 Mostly Cloudy SCT016 SCT023 BKN033 BKN041 81.7 74.7 79% 88 30.02 0.0
08 09:35 W 7 9.00 Overcast BKN014 BKN024 OVC034 79.9 75 85% 85 30.02 0.0
08 09:15 NW 7 9.00 Mostly Cloudy SCT013 BKN022 78.6 75.4 90% 82 30.02 0.0
08 08:55 W 5 8.00 Fair CLR 77.7 75 91% 80 30.02 0.0
08 08:35 W 6 9.00 Fair CLR 76.6 75 95% 77 30.01 0.0
08 08:15 W 3 8.00 Fair CLR 75 73.9 96% 73 30.01 0.0
08 07:55 Calm 7.00 Fair CLR 72.1 72.1 72.1 68.9 100% 30 0.0
08 07:35 Calm 6.00 Fog/Mist CLR 70.3 70.3 100% 29.99 0.0
08 07:15 Calm 7.00 Fair CLR 69.8 69.8 100% 29.99 0.0
08 06:55 Calm 5.00 Fog/Mist CLR 68.9 68.9 100% 29.98 0.0
08 06:35 Calm 2.50 Fog/Mist CLR 69.1 69.1 100% 29.97 0.0
08 06:15 Calm 8.00 Fair CLR 71.2 71.2 100% 29.96 0.0
08 05:55 W 3 9.00 Fair CLR 71.1 71.1 100% 29.96 0.0
08 05:35 W 3 9.00 Fair CLR 70.3 70.3 100% 29.95 0.0
08 05:15 W 3 9.00 Fair CLR 70.9 70.9 100% 29.95 0.0
08 04:55 W 3 9.00 Fair CLR 70.9 70.9 100% 29.95 0.0
08 04:35 W 3 9.00 Fair CLR 70.9 70.9 100% 29.94 0.0
08 04:15 W 3 9.00 Fair CLR 71.6 71.6 100% 29.94 0.0
08 03:55 Calm 9.00 Fair CLR 70.7 70.5 99% 29.95 0.0
08 03:35 W 3 9.00 Fair CLR 70.7 70.5 99% 29.95 0.0
08 03:15 W 3 10.00 Fair CLR 70.2 70 99% 29.95 0.0
08 02:55 W 3 10.00 Fair CLR 71.8 70.9 97% 29.96 0.0
08 02:35 W 3 10.00 Fair CLR 71.4 70.7 98% 29.96 0.0
08 02:15 W 3 10.00 Fair CLR 71.6 70.5 96% 29.96 0.0
08 01:55 W 5 10.00 Fair CLR 72 70.3 83.3 71.4 95% 29.97 0.0
08 01:35 W 5 10.00 Fair CLR 72.7 69.3 89% 29.98 0.0
08 01:15 NW 6 10.00 Fair CLR 73 68.9 87% 29.98 0.0
08 00:55 W 6 10.00 Fair CLR 72.9 68.2 85% 29.98 0.0
08 00:35 W 5 10.00 Fair CLR 73.4 67.8 83% 29.98 0.0
08 00:15 NW 5 10.00 Fair CLR 73.6 67.6 82% 29.98 0.0
07 23:55 NW 5 10.00 Fair CLR 74.1 67.3 79% 29.98 0.0
07 23:35 NW 5 10.00 Fair CLR 74.5 66.9 77% 29.99 0.0
07 23:15 NW 5 10.00 Fair CLR 75.2 66.6 75% 76 29.98 0.0
07 22:55 NW 7 10.00 Fair CLR 75.7 66.2 72% 77 29.98 0.0
07 22:15 NW 6 10.00 Fair CLR 76.8 65.1 67% 79 29.98 0.0
07 21:55 W 6 10.00 Fair CLR 77.7 65.1 65% 80 29.97 0.0
07 21:35 W 5 10.00 Fair CLR 78.1 64.9 64% 80 29.97 0.0
07 21:15 W 6 10.00 Fair CLR 79.2 64.8 61% 81 29.97 0.0
07 20:55 W 6 10.00 Fair CLR 80.4 64 58% 82 29.96 0.0
07 20:35 W 5 10.00 Fair CLR 81.3 63.3 54% 83 29.96 0.0
07 20:15 W 6 10.00 Fair CLR 82.6 62.4 51% 84 29.96 0.0
07 19:55 W 7 10.00 Fair CLR 84.2 61.2 91.4 84.2 46% 85 29.96 0.0
07 19:35 NW 9 10.00 Fair CLR 85.5 58.8 41% 85 29.95 0.0
07 19:15 NW 8 10.00 Fair CLR 86.5 54.9 34% 85 29.95 0.0
07 18:55 NW 8 10.00 Fair CLR 88.3 51.8 29% 86 29.95 0.0
07 18:35 W 9 10.00 Fair CLR 88.7 49.3 26% 86 29.95 0.0
07 18:15 W 8 10.00 Fair CLR 89.6 49.1 25% 87 29.94 0.0
07 17:55 W 8 10.00 Fair CLR 90 51.4 27% 87 29.94 0.0
07 17:35 W 14 10.00 Fair CLR 91.2 53.1 27% 89 29.94 0.0
07 17:15 W 7 10.00 Fair CLR 90.3 55 30% 88 29.94 0.0
07 16:15 SW 12 G 17 10.00 Fair CLR 89.2 61.3 39% 89 29.96 0.0
07 15:55 SW 13 10.00 Fair CLR 90 56.7 32% 88 29.96 0.0
07 15:35 SW 13 10.00 Fair CLR 90.1 49.6 25% 87 29.98 0.0
07 15:15 W 14 10.00 Fair CLR 91 41.5 18% 87 29.98 0.0
07 14:55 W 14 10.00 Fair CLR 91 47.1 22% 88 29.99 0.0
07 14:35 W 12 10.00 Fair CLR 90.7 54.7 30% 89 29.99 0.0
07 14:15 W 14 10.00 Fair CLR 90.3 58.8 35% 89 30 0.0
07 13:55 W 13 10.00 A Few Clouds FEW350 89.4 61.5 90.1 71.1 39% 90 30.01 0.0
07 13:35 SW 9 10.00 Fair CLR 89.4 65.3 45% 92 30.01 0.0
07 13:15 SW 7 10.00 Fair CLR 88.5 67.6 50% 92 30.01 0.0
07 12:55 SW 9 10.00 Fair CLR 87.3 68 53% 91 30.01 0.0
07 12:35 W 9 10.00 Fair CLR 87.4 68.2 53% 91 30.02 0.0
07 12:15 W 10 10.00 Fair CLR 87.6 65.8 48% 90 30.02 0.0
07 11:55 SW 9 10.00 Fair CLR 86.4 64.2 48% 88 30.03 0.0
07 11:35 SW 9 10.00 Fair CLR 86 63.9 48% 87 30.04 0.0
07 11:15 SW 10 10.00 Fair CLR 84.9 64.4 50% 86 30.04 0.0
07 10:55 SW 12 10.00 Fair CLR 84.4 65.3 53% 86 30.03 0.0
07 10:35 SW 10 10.00 Fair CLR 83.8 63.7 51% 85 30.03 0.0
07 10:15 S 12 10.00 Fair CLR 82.8 62.6 51% 84 30.03 0.0
07 09:55 S 10 10.00 Fair CLR 80.4 63 55% 82 30.04 0.0
07 09:35 S 7 10.00 Fair CLR 79.2 65.1 62% 81 30.04 0.0
07 09:15 S 7 10.00 Fair CLR 76.8 66.7 71% 79 30.03 0.0
07 08:55 S 7 10.00 Fair CLR 74.7 68 80% 30.02 0.0
07 08:35 S 8 10.00 Fair CLR 73 67.6 83% 30.02 0.0
07 08:15 S 7 10.00 Fair CLR 71.8 68.2 88% 30.02 0.0
07 07:55 SE 7 10.00 Fair CLR 70.3 68 71.6 67.8 92% 30.01 0.0
07 07:35 SE 6 10.00 Fair CLR 69.3 67.8 95% 30.01 0.0
07 07:15 SE 6 10.00 Fair CLR 69.3 67.5 94% 30 0.0
07 06:55 E 5 9.00 Fair CLR 67.8 67.8 100% 30 0.0
07 06:35 SE 6 10.00 Fair CLR 68.4 68 99% 30 0.0
07 06:15 SE 6 10.00 Fair CLR 69.1 68.7 99% 30 0.0
07 05:55 Calm 2.00 Fog/Mist CLR 68.2 68.2 100% 29.99 0.0
07 05:35 Calm 4.00 Fog/Mist CLR 68.9 68.9 100% 29.98 0.0
07 05:15 Calm 8.00 Fair CLR 68.9 68.9 100% 29.98 0.0
07 04:55 Calm 6.00 Fog/Mist CLR 69.4 69.4 100% 29.99 0.0
07 04:35 Calm 7.00 Fair CLR 69.4 69.4 100% 29.99 0.0
07 03:55 SE 3 8.00 Fair CLR 69.8 69.8 100% 29.98 0.0
07 03:35 Calm 6.00 Fog/Mist CLR 70.2 70.2 100% 29.98 0.0
07 03:15 Calm 9.00 Fair CLR 70.2 70.2 100% 29.99 0.0
07 02:55 Calm 7.00 Fair CLR 71.1 71.1 100% 29.99 0.0
07 02:35 Calm 9.00 Fair CLR 70.9 70.9 100% 29.99 0.0
07 02:15 SE 3 8.00 Fair CLR 71.1 71.1 100% 30 0.0
07 01:55 Calm 9.00 Fair CLR 71.2 71.2 82.4 71.2 100% 30.01 0.0
07 01:35 Calm 10.00 Fair CLR 72.1 72.1 100% 30.01 0.0
07 01:15 Calm 10.00 Fair CLR 72.5 72.3 99% 30.02 0.0
07 00:55 N 3 10.00 Fair CLR 74.1 72.9 96% 30.02 0.0
07 00:35 N 3 10.00 Fair CLR 74.1 72.9 96% 30.03 0.0
07 00:15 NW 3 10.00 Fair CLR 74.5 72.5 94% 30.03 0.0
06 23:55 N 5 10.00 Fair CLR 75.2 72.3 91% 74 30.03 0.0
06 23:35 NW 3 10.00 Fair CLR 75.6 72.1 89% 75 30.03 0.0
06 23:15 N 3 10.00 Fair CLR 76.1 72 87% 77 30.02 0.0
06 22:55 N 5 10.00 Fair CLR 76.6 72.1 86% 78 30.02 0.0
06 22:35 N 5 10.00 Fair CLR 76.5 71.8 86% 77 30.02 0.0
06 22:15 W 3 10.00 Fair CLR 77.7 72 83% 80 30.02 0.0
06 21:55 Calm 10.00 Fair CLR 78.8 70.2 75% 81 30.01 0.0
06 21:35 SW 3 10.00 Fair CLR 79.2 69.8 73% 82 30.01 0.0
06 21:15 SW 5 10.00 Fair CLR 79.7 68.9 70% 82 30.01 0.0
06 20:55 W 5 10.00 Fair CLR 80.2 67.6 66% 83 30.01 0.0
06 20:35 SW 7 10.00 Fair CLR 80.6 68 66% 83 30 0.0
06 20:15 SW 7 10.00 Fair CLR 81.7 69.4 67% 85 29.99 0.0
06 19:55 SW 8 9.00 Fair CLR 83.3 71.2 93.2 83.3 67% 88 29.99 0.0
06 19:35 SW 8 9.00 Fair CLR 84.4 71.8 66% 90 29.98 0.0
06 19:15 SW 9 10.00 Fair CLR 85.6 71.4 63% 91 29.98 0.0
06 18:55 SW 9 9.00 Fair CLR 87.3 71.4 59% 93 29.98 0.0
06 18:35 SW 10 9.00 A Few Clouds FEW070 88.5 70.9 56% 94 29.98 0.0
06 18:15 SW 10 10.00 A Few Clouds FEW070 89.6 68.9 51% 94 29.98 0.0
06 17:55 SW 9 10.00 Fair CLR 90.5 67.6 47% 94 29.98 0.0
06 17:35 SW 8 10.00 Fair CLR 90.9 67.6 47% 95 29.98 0.0
06 17:15 SW 5 10.00 Partly Cloudy SCT070 90.5 67.5 47% 94 29.98 0.0
06 16:55 W 5 10.00 A Few Clouds FEW070 92.7 62.4 37% 93 29.98 0.0
06 16:35 Calm 10.00 Fair CLR 91.2 62.1 38% 92 29.98 0.0
06 16:15 Vrbl 5 10.00 Fair CLR 91.6 62.8 38% 92 29.99 0.0
06 15:55 S 8 10.00 Fair CLR 91 62.4 39% 92 29.98 0.0
06 15:35 E 7 10.00 A Few Clouds FEW065 91.2 62.4 38% 92 29.99 0.0
06 15:15 Vrbl 3 10.00 Fair CLR 91.4 62.4 38% 92 30 0.0
06 14:55 Vrbl 6 10.00 Fair CLR 90.1 62.6 40% 91 30.01 0.0
06 14:35 Vrbl 5 10.00 Fair CLR 89.8 63.7 42% 91 30.02 0.0
06 14:15 Vrbl 7 10.00 A Few Clouds FEW350 89.4 63.3 42% 90 30.02 0.0
06 13:55 Vrbl 6 10.00 A Few Clouds FEW055 89.2 64.2 89.6 70.3 43% 91 30.03 0.0
06 13:35 NE 5 10.00 A Few Clouds FEW300 88.3 63.9 44% 90 30.04 0.0
06 13:15 S 8 10.00 A Few Clouds FEW360 88.5 63.9 44% 90 30.04 0.0
06 12:55 E 6 10.00 Fair CLR 87.1 65.3 48% 89 30.04 0.0
06 12:35 SE 9 10.00 Fair CLR 86.7 66.4 51% 89 30.05 0.0
06 12:15 SE 8 10.00 Fair CLR 86.9 65.7 49% 89 30.05 0.0
06 11:55 S 10 10.00 A Few Clouds FEW370 85.3 65.8 52% 87 30.05 0.0
06 11:35 SE 9 10.00 A Few Clouds FEW340 85.1 66.4 54% 88 30.05 0.0
06 11:15 SE 9 10.00 Fair CLR 83.8 66.4 56% 86 30.05 0.0
06 10:55 SE 7 9.00 Fair CLR 82.8 69.8 65% 87 30.05 0.0
06 10:35 SE 7 10.00 Fair CLR 81.7 69.8 67% 85 30.05 0.0
06 10:15 SE 9 10.00 Fair CLR 80.2 70.2 71% 84 30.06 0.0
06 09:55 S 7 10.00 Fair CLR 79.5 71.2 76% 83 30.06 0.0
06 09:35 S 8 9.00 Fair CLR 78.6 71.4 79% 81 30.05 0.0
06 09:15 SE 7 10.00 Fair CLR 76.3 70.9 83% 77 30.05 0.0
06 08:55 SE 8 10.00 Fair CLR 74.1 70.2 88% 30.04 0.0
06 08:15 SE 8 9.00 Fair CLR 71.6 69.1 92% 30.04 0.0
06 07:55 SE 6 8.00 Fair CLR 69.6 68 69.6 66 95% 30.03 0.0
06 07:35 SE 6 8.00 Fair CLR 68 67.1 97% 30.03 0.0
06 07:15 SE 3 8.00 Fair CLR 66.6 65.7 97% 30.02 0.0
06 06:55 SE 6 8.00 Fair CLR 66.9 65.7 96% 30.01 0.0
06 06:35 SE 5 8.00 Fair CLR 66 64.8 96% 30.01 0.0
06 06:15 SE 6 10.00 Fair CLR 66.6 64.8 94% 30.01 0.0
06 05:55 E 3 10.00 Fair CLR 66.6 64.4 93% 30.01 0.0
06 05:35 E 3 9.00 Fair CLR 66.4 64.2 93% 30.01 0.0
06 05:15 SE 3 10.00 Fair CLR 66.9 63.9 90% 30 0.0
06 04:55 SE 6 10.00 Fair CLR 66.7 63.5 89% 30 0.0
06 04:35 SE 6 10.00 Fair CLR 66.7 63.1 88% 30 0.0
06 04:15 SE 6 10.00 Fair CLR 67.8 63.1 85% 30.01 0.0
06 03:55 SE 3 10.00 Fair CLR 67.5 62.6 85% 30.01 0.0
06 03:35 E 5 10.00 Fair CLR 66.7 62.4 86% 30.01 0.0
06 03:15 SE 3 10.00 Fair CLR 67.6 62.2 83% 30.01 0.0
06 02:55 SE 3 10.00 Fair CLR 68.4 61.9 80% 30.01 0.0
06 01:55 Calm 10.00 Fair CLR 69.3 61.7 82.2 68.9 77% 30.03 0.0
06 01:35 SE 3 10.00 Fair CLR 69.3 61.5 77% 30.03 0.0
06 01:15 E 3 10.00 Fair CLR 69.8 61 74% 30.04 0.0
06 00:55 SE 3 9.00 Fair CLR 70.5 60.6 71% 30.04 0.0
06 00:35 E 3 10.00 Fair CLR 70.7 60.6 71% 30.04 0.0
06 00:15 E 6 10.00 Fair CLR 71.8 60.3 67% 30.04 0.0
05 23:55 E 7 9.00 Fair CLR 72.5 60.1 65% 30.04 0.0
05 23:35 SE 8 10.00 Fair CLR 73 60.1 64% 30.04 0.0
05 23:15 SE 8 10.00 Fair CLR 73.8 59.9 62% 30.04 0.0
05 22:55 SE 8 10.00 Fair CLR 74.3 59.9 61% 30.03 0.0
05 22:35 E 7 10.00 A Few Clouds FEW050 74.3 59.9 61% 30.03 0.0
05 22:15 SE 8 10.00 Partly Cloudy SCT048 75.7 59.5 57% 78 30.03 0.0
05 21:55 SE 10 10.00 Mostly Cloudy BKN045 BKN060 77 60.4 57% 79 30.02 0.0
05 21:35 E 7 10.00 Overcast BKN045 OVC055 77.4 61 57% 79 30.01 0.0
05 21:15 E 5 10.00 Overcast BKN045 OVC055 77.9 61.3 57% 79 30 0.0
05 20:55 E 9 10.00 Mostly Cloudy SCT038 BKN050 79 61.9 56% 80 29.99 0.0
05 20:35 NW 6 10.00 Partly Cloudy SCT070 79.2 64.9 62% 81 29.98 0.0
05 20:15 NW 7 9.00 Mostly Cloudy BKN070 BKN080 80.2 64.8 59% 82 29.97 0.0
05 19:55 SE 5 10.00 Partly Cloudy SCT070 SCT085 82.6 59 87.4 82.6 45% 83 29.96 0.0
05 19:35 SE 7 10.00 Partly Cloudy SCT070 83.5 58.8 43% 83 29.96 0.0
05 19:15 NE 3 10.00 Fair CLR 84.4 57.2 40% 84 29.95 0.0
05 18:55 Calm 10.00 A Few Clouds FEW070 85.8 57 38% 85 29.96 0.0
05 18:35 Calm 10.00 Partly Cloudy SCT070 85.5 56.8 38% 84 29.96 0.0
05 18:15 Calm 10.00 A Few Clouds FEW085 84.9 57 39% 84 29.96 0.0
05 17:55 NE 3 10.00 Overcast OVC080 85.3 56.3 37% 84 29.96 0.0
05 17:35 Vrbl 3 10.00 Overcast OVC075 85.8 57.2 38% 85 29.96 0.0
05 17:15 E 5 10.00 Partly Cloudy SCT075 86.4 57 37% 85 29.95 0.0
05 16:55 Vrbl 3 10.00 A Few Clouds FEW330 86.5 56.8 36% 85 29.95 0.0
05 16:35 E 5 10.00 A Few Clouds FEW075 85.8 56.8 37% 85 29.96 0.0
05 16:15 E 6 10.00 Mostly Cloudy BKN075 85.6 58.6 40% 85 29.97 0.0
05 15:55 Vrbl 5 10.00 A Few Clouds FEW075 86 57.7 38% 85 29.97 0.0
05 15:35 NE 7 10.00 Fair CLR 85.8 57.2 38% 85 29.97 0.0
05 15:15 SE 10 10.00 Mostly Cloudy FEW060 BKN080 86.5 59.7 40% 86 29.98 0.0
05 14:55 NE 9 10.00 Partly Cloudy FEW060 SCT370 85.6 58.6 40% 85 29.99 0.0
05 14:35 SE 5 10.00 Partly Cloudy SCT070 84.7 59.4 42% 84 29.99 0.0
05 14:15 E 7 10.00 Partly Cloudy SCT060 83.7 59.9 45% 84 30 0.0
05 13:55 NE 8 G 16 9.00 A Few Clouds FEW050 84.4 60.1 84.6 67.5 44% 84 30.01 0.0
05 13:35 E 6 10.00 Mostly Cloudy BKN055 BKN065 81.9 60.1 48% 82 30.01 0.0
05 13:15 E 3 10.00 Mostly Cloudy SCT048 BKN060 81.1 60.4 49% 82 30.02 0.0
05 12:55 E 10 10.00 A Few Clouds FEW047 82.2 61.7 50% 83 30.02 0.0
05 12:35 NE 7 10.00 Mostly Cloudy SCT047 BKN060 82.6 62.1 50% 83 30.02 0.0
05 12:15 E 8 10.00 Mostly Cloudy SCT042 BKN055 82 61.9 51% 83 30.03 0.0
05 11:55 SE 6 10.00 Mostly Cloudy SCT042 BKN055 79.9 62.2 55% 81 30.03 0.0
05 11:35 E 7 10.00 Mostly Cloudy BKN049 81.3 62.6 53% 82 30.03 0.0
05 11:15 Vrbl 6 10.00 Mostly Cloudy FEW037 BKN046 80.8 62.8 54% 82 30.03 0.0
05 10:55 NE 9 10.00 A Few Clouds FEW046 78.8 63 58% 80 30.03 0.0
05 10:35 E 13 10.00 Partly Cloudy FEW047 SCT055 79.2 62.6 57% 81 30.03 0.0
Date Time (edt) Wind (mph) Vis. (mi.) Weather Sky Cond. Air Dwpt Max. Min. Relative Humidity Wind Chill (°F) Heat Index (°F) altimeter (in) sea level (mb) 1 hr 3 hr 6 hr
6 hour
Temperature (ºF) Pressure Precipitation (in)